sensor_id;sensor_type;location;lat;lon;timestamp;P1;durP1;ratioP1;P2;durP2;ratioP2
58470;SDS011;44258;51.288;12.068;2023-03-01T00:00:15;33.25;;;14.77;;
58470;SDS011;44258;51.288;12.068;2023-03-01T00:03:04;35.25;;;14.68;;
58470;SDS011;44258;51.288;12.068;2023-03-01T00:05:50;32.58;;;14.73;;
58470;SDS011;44258;51.288;12.068;2023-03-01T00:08:37;36.85;;;15.18;;
58470;SDS011;44258;51.288;12.068;2023-03-01T00:11:25;33.92;;;13.98;;
58470;SDS011;44258;51.288;12.068;2023-03-01T00:14:13;34.85;;;14.63;;
58470;SDS011;44258;51.288;12.068;2023-03-01T00:17:01;37.47;;;15.32;;
58470;SDS011;44258;51.288;12.068;2023-03-01T00:19:49;37.30;;;15.73;;
58470;SDS011;44258;51.288;12.068;2023-03-01T00:22:36;33.72;;;14.50;;
58470;SDS011;44258;51.288;12.068;2023-03-01T00:25:23;33.47;;;15.15;;
58470;SDS011;44258;51.288;12.068;2023-03-01T00:28:10;36.60;;;14.48;;
58470;SDS011;44258;51.288;12.068;2023-03-01T00:30:56;36.10;;;14.13;;
58470;SDS011;44258;51.288;12.068;2023-03-01T00:33:52;32.65;;;14.13;;
58470;SDS011;44258;51.288;12.068;2023-03-01T00:36:44;33.42;;;15.25;;
58470;SDS011;44258;51.288;12.068;2023-03-01T00:39:31;38.08;;;15.40;;
58470;SDS011;44258;51.288;12.068;2023-03-01T00:42:19;30.05;;;12.95;;
58470;SDS011;44258;51.288;12.068;2023-03-01T00:45:07;32.50;;;14.73;;
58470;SDS011;44258;51.288;12.068;2023-03-01T00:47:55;34.78;;;14.15;;
58470;SDS011;44258;51.288;12.068;2023-03-01T00:53:30;30.17;;;12.10;;
58470;SDS011;44258;51.288;12.068;2023-03-01T00:56:17;33.55;;;13.48;;
58470;SDS011;44258;51.288;12.068;2023-03-01T00:59:04;39.05;;;15.38;;
58470;SDS011;44258;51.288;12.068;2023-03-01T01:01:51;33.30;;;14.07;;
58470;SDS011;44258;51.288;12.068;2023-03-01T01:04:37;30.77;;;14.43;;
58470;SDS011;44258;51.288;12.068;2023-03-01T01:07:24;33.92;;;13.90;;
58470;SDS011;44258;51.288;12.068;2023-03-01T01:10:12;34.92;;;13.93;;
58470;SDS011;44258;51.288;12.068;2023-03-01T01:13:02;28.92;;;12.38;;
58470;SDS011;44258;51.288;12.068;2023-03-01T01:15:49;30.63;;;12.45;;
58470;SDS011;44258;51.288;12.068;2023-03-01T01:18:36;31.35;;;13.77;;
58470;SDS011;44258;51.288;12.068;2023-03-01T01:21:23;32.15;;;13.20;;
58470;SDS011;44258;51.288;12.068;2023-03-01T01:24:11;33.75;;;13.32;;
58470;SDS011;44258;51.288;12.068;2023-03-01T01:26:59;29.70;;;12.52;;
58470;SDS011;44258;51.288;12.068;2023-03-01T01:29:46;31.52;;;13.10;;
58470;SDS011;44258;51.288;12.068;2023-03-01T01:35:19;26.88;;;13.00;;
58470;SDS011;44258;51.288;12.068;2023-03-01T01:38:06;26.80;;;13.50;;
58470;SDS011;44258;51.288;12.068;2023-03-01T01:40:56;28.25;;;12.95;;
58470;SDS011;44258;51.288;12.068;2023-03-01T01:43:45;29.15;;;13.18;;
58470;SDS011;44258;51.288;12.068;2023-03-01T01:46:35;27.23;;;12.00;;
58470;SDS011;44258;51.288;12.068;2023-03-01T01:49:25;28.80;;;11.88;;
58470;SDS011;44258;51.288;12.068;2023-03-01T01:52:16;26.13;;;11.45;;
58470;SDS011;44258;51.288;12.068;2023-03-01T01:55:06;30.40;;;12.27;;
58470;SDS011;44258;51.288;12.068;2023-03-01T01:57:58;25.73;;;10.65;;
58470;SDS011;44258;51.288;12.068;2023-03-01T02:00:50;23.67;;;10.63;;
58470;SDS011;44258;51.288;12.068;2023-03-01T02:03:37;26.40;;;10.75;;
58470;SDS011;44258;51.288;12.068;2023-03-01T02:06:27;30.65;;;11.65;;
58470;SDS011;44258;51.288;12.068;2023-03-01T02:09:18;26.08;;;11.27;;
58470;SDS011;44258;51.288;12.068;2023-03-01T02:12:11;28.08;;;12.07;;
58470;SDS011;44258;51.288;12.068;2023-03-01T02:15:06;29.98;;;11.98;;
58470;SDS011;44258;51.288;12.068;2023-03-01T02:17:54;28.90;;;12.75;;
58470;SDS011;44258;51.288;12.068;2023-03-01T02:20:44;28.25;;;12.20;;
58470;SDS011;44258;51.288;12.068;2023-03-01T02:23:41;27.80;;;11.15;;
58470;SDS011;44258;51.288;12.068;2023-03-01T02:29:25;26.80;;;10.10;;
58470;SDS011;44258;51.288;12.068;2023-03-01T02:32:14;25.80;;;10.00;;
58470;SDS011;44258;51.288;12.068;2023-03-01T02:35:08;24.75;;;9.57;;
58470;SDS011;44258;51.288;12.068;2023-03-01T02:38:01;25.65;;;10.98;;
58470;SDS011;44258;51.288;12.068;2023-03-01T02:40:51;26.67;;;11.43;;
58470;SDS011;44258;51.288;12.068;2023-03-01T02:43:40;27.65;;;10.63;;
58470;SDS011;44258;51.288;12.068;2023-03-01T02:46:29;22.02;;;9.00;;
58470;SDS011;44258;51.288;12.068;2023-03-01T02:49:18;21.38;;;9.88;;
58470;SDS011;44258;51.288;12.068;2023-03-01T02:52:11;21.83;;;10.38;;
58470;SDS011;44258;51.288;12.068;2023-03-01T02:55:08;21.20;;;10.02;;
58470;SDS011;44258;51.288;12.068;2023-03-01T02:57:57;22.85;;;10.18;;
58470;SDS011;44258;51.288;12.068;2023-03-01T03:00:48;22.65;;;9.55;;
58470;SDS011;44258;51.288;12.068;2023-03-01T03:03:36;23.95;;;9.43;;
58470;SDS011;44258;51.288;12.068;2023-03-01T03:06:22;23.50;;;10.88;;
58470;SDS011;44258;51.288;12.068;2023-03-01T03:09:09;25.10;;;11.25;;
58470;SDS011;44258;51.288;12.068;2023-03-01T03:11:56;26.25;;;10.30;;
58470;SDS011;44258;51.288;12.068;2023-03-01T03:14:43;27.23;;;10.00;;
58470;SDS011;44258;51.288;12.068;2023-03-01T03:17:30;26.80;;;11.30;;
58470;SDS011;44258;51.288;12.068;2023-03-01T03:20:19;22.13;;;9.95;;
58470;SDS011;44258;51.288;12.068;2023-03-01T03:23:08;26.90;;;11.27;;
58470;SDS011;44258;51.288;12.068;2023-03-01T03:25:55;27.10;;;10.27;;
58470;SDS011;44258;51.288;12.068;2023-03-01T03:28:42;28.58;;;10.30;;
58470;SDS011;44258;51.288;12.068;2023-03-01T03:31:28;26.63;;;10.43;;
58470;SDS011;44258;51.288;12.068;2023-03-01T03:37:04;23.50;;;9.43;;
58470;SDS011;44258;51.288;12.068;2023-03-01T03:40:11;23.60;;;10.25;;
58470;SDS011;44258;51.288;12.068;2023-03-01T03:43:00;25.77;;;10.38;;
58470;SDS011;44258;51.288;12.068;2023-03-01T03:45:48;29.65;;;11.82;;
58470;SDS011;44258;51.288;12.068;2023-03-01T03:48:37;24.15;;;10.95;;
58470;SDS011;44258;51.288;12.068;2023-03-01T03:51:24;25.95;;;10.57;;
58470;SDS011;44258;51.288;12.068;2023-03-01T03:56:59;26.17;;;10.23;;
58470;SDS011;44258;51.288;12.068;2023-03-01T03:59:46;27.85;;;11.35;;
58470;SDS011;44258;51.288;12.068;2023-03-01T04:02:33;27.45;;;11.05;;
58470;SDS011;44258;51.288;12.068;2023-03-01T04:05:20;26.45;;;11.20;;
58470;SDS011;44258;51.288;12.068;2023-03-01T04:08:07;26.23;;;11.90;;
58470;SDS011;44258;51.288;12.068;2023-03-01T04:10:58;25.05;;;10.07;;
58470;SDS011;44258;51.288;12.068;2023-03-01T04:14:06;23.13;;;10.27;;
58470;SDS011;44258;51.288;12.068;2023-03-01T04:16:53;24.35;;;10.30;;
58470;SDS011;44258;51.288;12.068;2023-03-01T04:19:40;25.10;;;9.75;;
58470;SDS011;44258;51.288;12.068;2023-03-01T04:22:29;28.45;;;11.23;;
58470;SDS011;44258;51.288;12.068;2023-03-01T04:25:17;21.42;;;9.90;;
58470;SDS011;44258;51.288;12.068;2023-03-01T04:28:06;23.58;;;9.68;;
58470;SDS011;44258;51.288;12.068;2023-03-01T04:30:53;26.85;;;10.75;;
58470;SDS011;44258;51.288;12.068;2023-03-01T04:33:42;22.90;;;9.00;;
58470;SDS011;44258;51.288;12.068;2023-03-01T04:36:30;23.83;;;9.55;;
58470;SDS011;44258;51.288;12.068;2023-03-01T04:39:17;29.27;;;9.02;;
58470;SDS011;44258;51.288;12.068;2023-03-01T04:42:03;21.27;;;8.35;;
58470;SDS011;44258;51.288;12.068;2023-03-01T04:44:51;22.48;;;9.27;;
58470;SDS011;44258;51.288;12.068;2023-03-01T04:47:39;21.92;;;8.68;;
58470;SDS011;44258;51.288;12.068;2023-03-01T04:50:26;23.35;;;9.15;;
58470;SDS011;44258;51.288;12.068;2023-03-01T04:53:13;22.05;;;9.27;;
58470;SDS011;44258;51.288;12.068;2023-03-01T04:55:59;24.40;;;9.20;;
58470;SDS011;44258;51.288;12.068;2023-03-01T05:01:34;26.35;;;9.93;;
58470;SDS011;44258;51.288;12.068;2023-03-01T05:04:22;25.23;;;9.82;;
58470;SDS011;44258;51.288;12.068;2023-03-01T05:07:09;25.30;;;10.35;;
58470;SDS011;44258;51.288;12.068;2023-03-01T05:09:58;24.85;;;9.27;;
58470;SDS011;44258;51.288;12.068;2023-03-01T05:12:45;23.75;;;9.65;;
58470;SDS011;44258;51.288;12.068;2023-03-01T05:18:19;23.50;;;9.50;;
58470;SDS011;44258;51.288;12.068;2023-03-01T05:21:07;23.02;;;9.55;;
58470;SDS011;44258;51.288;12.068;2023-03-01T05:23:55;22.65;;;9.07;;
58470;SDS011;44258;51.288;12.068;2023-03-01T05:26:42;27.65;;;10.48;;
58470;SDS011;44258;51.288;12.068;2023-03-01T05:29:30;24.58;;;9.90;;
58470;SDS011;44258;51.288;12.068;2023-03-01T05:32:20;24.33;;;10.25;;
58470;SDS011;44258;51.288;12.068;2023-03-01T05:37:58;19.80;;;8.85;;
58470;SDS011;44258;51.288;12.068;2023-03-01T05:40:46;22.50;;;9.13;;
58470;SDS011;44258;51.288;12.068;2023-03-01T05:43:34;23.00;;;9.30;;
58470;SDS011;44258;51.288;12.068;2023-03-01T05:46:20;23.45;;;9.73;;
58470;SDS011;44258;51.288;12.068;2023-03-01T05:49:09;25.45;;;9.75;;
58470;SDS011;44258;51.288;12.068;2023-03-01T05:51:57;25.73;;;11.57;;
58470;SDS011;44258;51.288;12.068;2023-03-01T05:54:44;25.75;;;10.45;;
58470;SDS011;44258;51.288;12.068;2023-03-01T05:57:31;26.13;;;9.38;;
58470;SDS011;44258;51.288;12.068;2023-03-01T06:03:09;35.10;;;12.10;;
58470;SDS011;44258;51.288;12.068;2023-03-01T06:05:56;30.27;;;11.55;;
58470;SDS011;44258;51.288;12.068;2023-03-01T06:08:44;31.17;;;12.43;;
58470;SDS011;44258;51.288;12.068;2023-03-01T06:11:31;27.13;;;10.98;;
58470;SDS011;44258;51.288;12.068;2023-03-01T06:14:20;25.67;;;11.07;;
58470;SDS011;44258;51.288;12.068;2023-03-01T06:17:06;22.73;;;10.00;;
58470;SDS011;44258;51.288;12.068;2023-03-01T06:19:53;29.75;;;11.60;;
58470;SDS011;44258;51.288;12.068;2023-03-01T06:22:40;27.77;;;10.73;;
58470;SDS011;44258;51.288;12.068;2023-03-01T06:25:28;26.30;;;10.18;;
58470;SDS011;44258;51.288;12.068;2023-03-01T06:28:15;23.73;;;10.57;;
58470;SDS011;44258;51.288;12.068;2023-03-01T06:31:02;34.13;;;13.73;;
58470;SDS011;44258;51.288;12.068;2023-03-01T06:36:36;22.63;;;9.88;;
58470;SDS011;44258;51.288;12.068;2023-03-01T06:39:22;25.52;;;9.98;;
58470;SDS011;44258;51.288;12.068;2023-03-01T06:42:10;28.35;;;10.57;;
58470;SDS011;44258;51.288;12.068;2023-03-01T06:44:57;25.00;;;10.65;;
58470;SDS011;44258;51.288;12.068;2023-03-01T06:47:44;27.13;;;10.82;;
58470;SDS011;44258;51.288;12.068;2023-03-01T06:50:31;26.95;;;10.77;;
58470;SDS011;44258;51.288;12.068;2023-03-01T06:56:05;20.85;;;10.15;;
58470;SDS011;44258;51.288;12.068;2023-03-01T06:58:54;28.55;;;10.63;;
58470;SDS011;44258;51.288;12.068;2023-03-01T07:01:40;22.60;;;11.07;;
58470;SDS011;44258;51.288;12.068;2023-03-01T07:07:15;26.58;;;11.18;;
58470;SDS011;44258;51.288;12.068;2023-03-01T07:10:03;24.70;;;10.65;;
58470;SDS011;44258;51.288;12.068;2023-03-01T07:12:53;24.58;;;10.27;;
58470;SDS011;44258;51.288;12.068;2023-03-01T07:15:42;24.55;;;10.23;;
58470;SDS011;44258;51.288;12.068;2023-03-01T07:18:29;26.10;;;10.20;;
58470;SDS011;44258;51.288;12.068;2023-03-01T07:21:15;23.75;;;9.80;;
58470;SDS011;44258;51.288;12.068;2023-03-01T07:26:51;24.55;;;10.48;;
58470;SDS011;44258;51.288;12.068;2023-03-01T07:29:38;27.15;;;10.45;;
58470;SDS011;44258;51.288;12.068;2023-03-01T07:32:29;21.38;;;8.90;;
58470;SDS011;44258;51.288;12.068;2023-03-01T07:35:16;23.20;;;10.20;;
58470;SDS011;44258;51.288;12.068;2023-03-01T07:38:02;23.52;;;10.20;;
58470;SDS011;44258;51.288;12.068;2023-03-01T07:40:49;22.75;;;9.50;;
58470;SDS011;44258;51.288;12.068;2023-03-01T07:43:36;23.98;;;10.77;;
58470;SDS011;44258;51.288;12.068;2023-03-01T07:46:23;23.52;;;10.40;;
58470;SDS011;44258;51.288;12.068;2023-03-01T07:49:11;22.45;;;10.57;;
58470;SDS011;44258;51.288;12.068;2023-03-01T07:51:58;24.90;;;10.63;;
58470;SDS011;44258;51.288;12.068;2023-03-01T07:54:44;23.08;;;9.55;;
58470;SDS011;44258;51.288;12.068;2023-03-01T07:57:31;19.92;;;9.52;;
58470;SDS011;44258;51.288;12.068;2023-03-01T08:00:18;24.38;;;10.00;;
58470;SDS011;44258;51.288;12.068;2023-03-01T08:03:05;22.52;;;9.63;;
58470;SDS011;44258;51.288;12.068;2023-03-01T08:05:53;17.67;;;8.77;;
58470;SDS011;44258;51.288;12.068;2023-03-01T08:08:40;21.25;;;9.85;;
58470;SDS011;44258;51.288;12.068;2023-03-01T08:11:27;23.85;;;11.02;;
58470;SDS011;44258;51.288;12.068;2023-03-01T08:17:01;25.58;;;10.13;;
58470;SDS011;44258;51.288;12.068;2023-03-01T08:19:48;23.35;;;10.80;;
58470;SDS011;44258;51.288;12.068;2023-03-01T08:22:39;23.35;;;10.43;;
58470;SDS011;44258;51.288;12.068;2023-03-01T08:25:26;22.05;;;10.15;;
58470;SDS011;44258;51.288;12.068;2023-03-01T08:28:12;22.73;;;10.35;;
58470;SDS011;44258;51.288;12.068;2023-03-01T08:30:59;23.33;;;10.40;;
58470;SDS011;44258;51.288;12.068;2023-03-01T08:33:46;23.95;;;10.30;;
58470;SDS011;44258;51.288;12.068;2023-03-01T08:36:37;21.83;;;10.02;;
58470;SDS011;44258;51.288;12.068;2023-03-01T08:39:26;26.88;;;11.68;;
58470;SDS011;44258;51.288;12.068;2023-03-01T08:42:13;22.45;;;10.27;;
58470;SDS011;44258;51.288;12.068;2023-03-01T08:45:00;23.65;;;11.13;;
58470;SDS011;44258;51.288;12.068;2023-03-01T08:47:46;23.85;;;10.48;;
58470;SDS011;44258;51.288;12.068;2023-03-01T08:50:33;24.95;;;11.38;;
58470;SDS011;44258;51.288;12.068;2023-03-01T08:53:23;22.88;;;10.70;;
58470;SDS011;44258;51.288;12.068;2023-03-01T08:56:11;24.05;;;11.77;;
58470;SDS011;44258;51.288;12.068;2023-03-01T08:58:58;20.90;;;10.15;;
58470;SDS011;44258;51.288;12.068;2023-03-01T09:01:45;25.60;;;11.50;;
58470;SDS011;44258;51.288;12.068;2023-03-01T09:04:32;28.52;;;12.63;;
58470;SDS011;44258;51.288;12.068;2023-03-01T09:07:19;28.30;;;12.00;;
58470;SDS011;44258;51.288;12.068;2023-03-01T09:09:52;27.48;;;11.98;;
58470;SDS011;44258;51.288;12.068;2023-03-01T09:12:20;26.10;;;11.80;;
58470;SDS011;44258;51.288;12.068;2023-03-01T09:14:47;25.10;;;12.68;;
58470;SDS011;44258;51.288;12.068;2023-03-01T09:17:13;25.48;;;12.35;;
58470;SDS011;44258;51.288;12.068;2023-03-01T09:19:40;26.38;;;11.25;;
58470;SDS011;44258;51.288;12.068;2023-03-01T09:22:06;25.88;;;11.57;;
58470;SDS011;44258;51.288;12.068;2023-03-01T09:24:33;27.27;;;12.30;;
58470;SDS011;44258;51.288;12.068;2023-03-01T09:26:59;27.88;;;13.00;;
58470;SDS011;44258;51.288;12.068;2023-03-01T09:29:27;29.55;;;13.32;;
58470;SDS011;44258;51.288;12.068;2023-03-01T09:31:54;26.20;;;12.60;;
58470;SDS011;44258;51.288;12.068;2023-03-01T09:34:21;27.58;;;12.63;;
58470;SDS011;44258;51.288;12.068;2023-03-01T09:36:50;26.38;;;12.82;;
58470;SDS011;44258;51.288;12.068;2023-03-01T09:39:17;28.55;;;12.65;;
58470;SDS011;44258;51.288;12.068;2023-03-01T09:41:49;29.67;;;13.20;;
58470;SDS011;44258;51.288;12.068;2023-03-01T09:44:32;32.38;;;13.55;;
58470;SDS011;44258;51.288;12.068;2023-03-01T09:47:04;28.63;;;13.77;;
58470;SDS011;44258;51.288;12.068;2023-03-01T09:49:36;28.88;;;12.65;;
58470;SDS011;44258;51.288;12.068;2023-03-01T09:52:11;31.73;;;14.43;;
58470;SDS011;44258;51.288;12.068;2023-03-01T09:54:46;29.17;;;11.90;;
58470;SDS011;44258;51.288;12.068;2023-03-01T09:57:17;30.10;;;15.40;;
58470;SDS011;44258;51.288;12.068;2023-03-01T09:59:52;25.98;;;12.18;;
58470;SDS011;44258;51.288;12.068;2023-03-01T10:02:30;25.98;;;12.52;;
58470;SDS011;44258;51.288;12.068;2023-03-01T10:05:05;31.33;;;13.85;;
58470;SDS011;44258;51.288;12.068;2023-03-01T10:08:00;30.77;;;13.85;;
58470;SDS011;44258;51.288;12.068;2023-03-01T10:10:38;28.05;;;11.77;;
58470;SDS011;44258;51.288;12.068;2023-03-01T10:13:10;25.90;;;10.48;;
58470;SDS011;44258;51.288;12.068;2023-03-01T10:15:47;29.13;;;13.15;;
58470;SDS011;44258;51.288;12.068;2023-03-01T10:18:21;27.65;;;10.82;;
58470;SDS011;44258;51.288;12.068;2023-03-01T10:20:52;32.50;;;13.43;;
58470;SDS011;44258;51.288;12.068;2023-03-01T10:23:22;25.38;;;10.77;;
58470;SDS011;44258;51.288;12.068;2023-03-01T10:25:53;34.95;;;12.25;;
58470;SDS011;44258;51.288;12.068;2023-03-01T10:28:36;27.15;;;13.68;;
58470;SDS011;44258;51.288;12.068;2023-03-01T10:31:15;27.33;;;11.65;;
58470;SDS011;44258;51.288;12.068;2023-03-01T10:33:49;27.75;;;12.75;;
58470;SDS011;44258;51.288;12.068;2023-03-01T10:36:19;28.30;;;12.45;;
58470;SDS011;44258;51.288;12.068;2023-03-01T10:38:48;25.17;;;11.45;;
58470;SDS011;44258;51.288;12.068;2023-03-01T10:41:17;28.27;;;12.02;;
58470;SDS011;44258;51.288;12.068;2023-03-01T10:43:45;25.48;;;11.02;;
58470;SDS011;44258;51.288;12.068;2023-03-01T10:46:24;27.80;;;11.38;;
58470;SDS011;44258;51.288;12.068;2023-03-01T10:51:47;25.15;;;12.20;;
58470;SDS011;44258;51.288;12.068;2023-03-01T10:54:19;26.70;;;10.88;;
58470;SDS011;44258;51.288;12.068;2023-03-01T10:56:47;27.60;;;12.10;;
58470;SDS011;44258;51.288;12.068;2023-03-01T10:59:21;22.92;;;11.35;;
58470;SDS011;44258;51.288;12.068;2023-03-01T11:02:02;21.50;;;9.45;;
58470;SDS011;44258;51.288;12.068;2023-03-01T11:04:56;21.20;;;8.88;;
58470;SDS011;44258;51.288;12.068;2023-03-01T11:07:31;26.92;;;10.60;;
58470;SDS011;44258;51.288;12.068;2023-03-01T11:10:15;24.70;;;10.02;;
58470;SDS011;44258;51.288;12.068;2023-03-01T11:12:46;20.23;;;9.88;;
58470;SDS011;44258;51.288;12.068;2023-03-01T11:15:20;23.95;;;10.70;;
58470;SDS011;44258;51.288;12.068;2023-03-01T11:17:50;23.30;;;10.68;;
58470;SDS011;44258;51.288;12.068;2023-03-01T11:20:19;23.15;;;9.77;;
58470;SDS011;44258;51.288;12.068;2023-03-01T11:22:52;20.67;;;8.77;;
58470;SDS011;44258;51.288;12.068;2023-03-01T11:25:22;21.60;;;9.90;;
58470;SDS011;44258;51.288;12.068;2023-03-01T11:27:51;19.48;;;9.05;;
58470;SDS011;44258;51.288;12.068;2023-03-01T11:30:20;25.02;;;11.43;;
58470;SDS011;44258;51.288;12.068;2023-03-01T11:32:53;29.80;;;11.75;;
58470;SDS011;44258;51.288;12.068;2023-03-01T11:35:29;21.20;;;7.40;;
58470;SDS011;44258;51.288;12.068;2023-03-01T11:37:59;26.20;;;12.15;;
58470;SDS011;44258;51.288;12.068;2023-03-01T11:40:37;26.58;;;11.25;;
58470;SDS011;44258;51.288;12.068;2023-03-01T11:43:10;25.42;;;12.30;;
58470;SDS011;44258;51.288;12.068;2023-03-01T11:45:47;26.50;;;11.63;;
58470;SDS011;44258;51.288;12.068;2023-03-01T11:48:29;32.47;;;14.00;;
58470;SDS011;44258;51.288;12.068;2023-03-01T11:51:13;26.35;;;13.13;;
58470;SDS011;44258;51.288;12.068;2023-03-01T11:53:51;26.58;;;12.80;;
58470;SDS011;44258;51.288;12.068;2023-03-01T11:56:29;20.75;;;9.70;;
58470;SDS011;44258;51.288;12.068;2023-03-01T11:59:07;29.63;;;14.52;;
58470;SDS011;44258;51.288;12.068;2023-03-01T12:01:51;25.48;;;11.88;;
58470;SDS011;44258;51.288;12.068;2023-03-01T12:07:33;30.23;;;13.02;;
58470;SDS011;44258;51.288;12.068;2023-03-01T12:10:22;29.25;;;12.82;;
58470;SDS011;44258;51.288;12.068;2023-03-01T12:12:55;26.45;;;10.18;;
58470;SDS011;44258;51.288;12.068;2023-03-01T12:15:38;28.48;;;13.38;;
58470;SDS011;44258;51.288;12.068;2023-03-01T12:18:21;26.75;;;11.13;;
58470;SDS011;44258;51.288;12.068;2023-03-01T12:21:00;23.52;;;10.10;;
58470;SDS011;44258;51.288;12.068;2023-03-01T12:23:41;27.67;;;11.35;;
58470;SDS011;44258;51.288;12.068;2023-03-01T12:26:23;21.70;;;10.00;;
58470;SDS011;44258;51.288;12.068;2023-03-01T12:29:00;22.02;;;10.75;;
58470;SDS011;44258;51.288;12.068;2023-03-01T12:31:52;23.48;;;8.73;;
58470;SDS011;44258;51.288;12.068;2023-03-01T12:34:42;20.17;;;9.68;;
58470;SDS011;44258;51.288;12.068;2023-03-01T12:37:23;27.35;;;10.80;;
58470;SDS011;44258;51.288;12.068;2023-03-01T12:40:02;24.85;;;11.90;;
58470;SDS011;44258;51.288;12.068;2023-03-01T12:42:47;16.90;;;7.47;;
58470;SDS011;44258;51.288;12.068;2023-03-01T12:45:35;20.92;;;9.23;;
58470;SDS011;44258;51.288;12.068;2023-03-01T12:48:23;23.00;;;10.88;;
58470;SDS011;44258;51.288;12.068;2023-03-01T12:50:57;21.83;;;10.50;;
58470;SDS011;44258;51.288;12.068;2023-03-01T12:53:29;21.40;;;10.00;;
58470;SDS011;44258;51.288;12.068;2023-03-01T12:55:59;21.30;;;9.07;;
58470;SDS011;44258;51.288;12.068;2023-03-01T12:58:29;18.65;;;9.18;;
58470;SDS011;44258;51.288;12.068;2023-03-01T13:03:55;19.10;;;8.43;;
58470;SDS011;44258;51.288;12.068;2023-03-01T13:06:32;22.88;;;10.68;;
58470;SDS011;44258;51.288;12.068;2023-03-01T13:09:11;20.67;;;10.65;;
58470;SDS011;44258;51.288;12.068;2023-03-01T13:11:44;23.25;;;9.65;;
58470;SDS011;44258;51.288;12.068;2023-03-01T13:17:02;19.55;;;8.25;;
58470;SDS011;44258;51.288;12.068;2023-03-01T13:19:31;18.40;;;9.38;;
58470;SDS011;44258;51.288;12.068;2023-03-01T13:22:00;22.40;;;9.43;;
58470;SDS011;44258;51.288;12.068;2023-03-01T13:25:02;17.45;;;7.75;;
58470;SDS011;44258;51.288;12.068;2023-03-01T13:27:39;19.25;;;9.10;;
58470;SDS011;44258;51.288;12.068;2023-03-01T13:30:12;19.75;;;8.68;;
58470;SDS011;44258;51.288;12.068;2023-03-01T13:33:33;18.60;;;8.75;;
58470;SDS011;44258;51.288;12.068;2023-03-01T13:36:10;19.23;;;9.30;;
58470;SDS011;44258;51.288;12.068;2023-03-01T13:38:58;20.65;;;7.90;;
58470;SDS011;44258;51.288;12.068;2023-03-01T13:44:20;18.70;;;9.55;;
58470;SDS011;44258;51.288;12.068;2023-03-01T13:46:53;17.60;;;7.93;;
58470;SDS011;44258;51.288;12.068;2023-03-01T13:49:25;20.20;;;9.98;;
58470;SDS011;44258;51.288;12.068;2023-03-01T13:51:54;22.48;;;9.80;;
58470;SDS011;44258;51.288;12.068;2023-03-01T13:54:24;18.70;;;9.15;;
58470;SDS011;44258;51.288;12.068;2023-03-01T13:56:58;17.48;;;7.03;;
58470;SDS011;44258;51.288;12.068;2023-03-01T13:59:27;21.20;;;10.25;;
58470;SDS011;44258;51.288;12.068;2023-03-01T14:01:57;23.73;;;10.10;;
58470;SDS011;44258;51.288;12.068;2023-03-01T14:04:26;21.35;;;9.68;;
58470;SDS011;44258;51.288;12.068;2023-03-01T14:07:08;20.73;;;10.05;;
58470;SDS011;44258;51.288;12.068;2023-03-01T14:09:44;20.70;;;9.95;;
58470;SDS011;44258;51.288;12.068;2023-03-01T14:12:19;20.77;;;10.15;;
58470;SDS011;44258;51.288;12.068;2023-03-01T14:14:56;19.92;;;8.40;;
58470;SDS011;44258;51.288;12.068;2023-03-01T14:17:31;17.13;;;7.22;;
58470;SDS011;44258;51.288;12.068;2023-03-01T14:20:11;19.02;;;8.82;;
58470;SDS011;44258;51.288;12.068;2023-03-01T14:22:42;18.90;;;8.80;;
58470;SDS011;44258;51.288;12.068;2023-03-01T14:25:17;18.50;;;7.78;;
58470;SDS011;44258;51.288;12.068;2023-03-01T14:27:52;19.23;;;8.27;;
58470;SDS011;44258;51.288;12.068;2023-03-01T14:30:23;19.45;;;9.18;;
58470;SDS011;44258;51.288;12.068;2023-03-01T14:32:53;20.20;;;9.35;;
58470;SDS011;44258;51.288;12.068;2023-03-01T14:35:21;17.30;;;8.68;;
58470;SDS011;44258;51.288;12.068;2023-03-01T14:37:49;20.90;;;9.95;;
58470;SDS011;44258;51.288;12.068;2023-03-01T14:40:23;15.63;;;5.22;;
58470;SDS011;44258;51.288;12.068;2023-03-01T14:42:56;16.33;;;7.20;;
58470;SDS011;44258;51.288;12.068;2023-03-01T14:45:26;19.13;;;7.88;;
58470;SDS011;44258;51.288;12.068;2023-03-01T14:47:54;18.13;;;7.80;;
58470;SDS011;44258;51.288;12.068;2023-03-01T14:50:32;16.95;;;7.07;;
58470;SDS011;44258;51.288;12.068;2023-03-01T14:53:02;17.45;;;7.75;;
58470;SDS011;44258;51.288;12.068;2023-03-01T14:55:32;13.45;;;6.28;;
58470;SDS011;44258;51.288;12.068;2023-03-01T14:58:04;13.80;;;5.10;;
58470;SDS011;44258;51.288;12.068;2023-03-01T15:00:32;16.85;;;7.07;;
58470;SDS011;44258;51.288;12.068;2023-03-01T15:03:01;17.15;;;7.05;;
58470;SDS011;44258;51.288;12.068;2023-03-01T15:05:34;16.30;;;6.60;;
58470;SDS011;44258;51.288;12.068;2023-03-01T15:08:02;15.93;;;6.85;;
58470;SDS011;44258;51.288;12.068;2023-03-01T15:10:34;12.93;;;4.85;;
58470;SDS011;44258;51.288;12.068;2023-03-01T15:13:12;14.77;;;5.97;;
58470;SDS011;44258;51.288;12.068;2023-03-01T15:15:41;17.00;;;6.97;;
58470;SDS011;44258;51.288;12.068;2023-03-01T15:18:16;14.88;;;6.72;;
58470;SDS011;44258;51.288;12.068;2023-03-01T15:25:44;16.05;;;5.65;;
58470;SDS011;44258;51.288;12.068;2023-03-01T15:28:17;14.05;;;5.78;;
58470;SDS011;44258;51.288;12.068;2023-03-01T15:30:46;14.00;;;6.32;;
58470;SDS011;44258;51.288;12.068;2023-03-01T15:33:27;15.02;;;7.25;;
58470;SDS011;44258;51.288;12.068;2023-03-01T15:35:56;15.63;;;6.65;;
58470;SDS011;44258;51.288;12.068;2023-03-01T15:38:31;15.00;;;6.93;;
58470;SDS011;44258;51.288;12.068;2023-03-01T15:41:04;15.57;;;6.45;;
58470;SDS011;44258;51.288;12.068;2023-03-01T15:43:52;16.00;;;6.18;;
58470;SDS011;44258;51.288;12.068;2023-03-01T15:46:25;12.85;;;5.93;;
58470;SDS011;44258;51.288;12.068;2023-03-01T15:48:55;16.42;;;6.65;;
58470;SDS011;44258;51.288;12.068;2023-03-01T15:51:27;13.57;;;6.68;;
58470;SDS011;44258;51.288;12.068;2023-03-01T15:53:57;14.25;;;6.57;;
58470;SDS011;44258;51.288;12.068;2023-03-01T15:56:27;12.77;;;5.70;;
58470;SDS011;44258;51.288;12.068;2023-03-01T15:58:58;15.25;;;6.15;;
58470;SDS011;44258;51.288;12.068;2023-03-01T16:01:26;15.23;;;6.70;;
58470;SDS011;44258;51.288;12.068;2023-03-01T16:03:53;15.35;;;6.60;;
58470;SDS011;44258;51.288;12.068;2023-03-01T16:06:19;15.43;;;6.60;;
58470;SDS011;44258;51.288;12.068;2023-03-01T16:08:46;15.43;;;6.55;;
58470;SDS011;44258;51.288;12.068;2023-03-01T16:11:14;14.60;;;6.25;;
58470;SDS011;44258;51.288;12.068;2023-03-01T16:13:42;15.40;;;6.70;;
58470;SDS011;44258;51.288;12.068;2023-03-01T16:16:11;16.30;;;6.63;;
58470;SDS011;44258;51.288;12.068;2023-03-01T16:18:40;15.45;;;5.65;;
58470;SDS011;44258;51.288;12.068;2023-03-01T16:21:10;16.77;;;6.80;;
58470;SDS011;44258;51.288;12.068;2023-03-01T16:23:40;16.45;;;6.82;;
58470;SDS011;44258;51.288;12.068;2023-03-01T16:26:07;14.07;;;6.03;;
58470;SDS011;44258;51.288;12.068;2023-03-01T16:28:35;13.02;;;5.88;;
58470;SDS011;44258;51.288;12.068;2023-03-01T16:31:01;16.38;;;6.43;;
58470;SDS011;44258;51.288;12.068;2023-03-01T16:33:30;16.85;;;6.25;;